Time;durP1;ratioP1;P1;durP2;ratioP2;P2;SDS_P1;SDS_P2;PMS_P1;PMS_P2;Temp;Humidity;BMP_temperature;BMP_pressure;BME280_temperature;BME280_humidity;BME280_pressure;Samples;Min_cycle;Max_cycle;Signal;HPM_P1;HPM_P2
2022/04/10 00:01:22;;;;;;;5.65;4.03;;;;;;;;;;5016672;28;20504;-76
2022/04/10 00:03:47;;;;;;;6.20;4.57;;;;;;;;;;5021359;28;20209;-76
2022/04/10 00:06:12;;;;;;;4.87;3.97;;;;;;;;;;5014515;28;20239;-76
2022/04/10 00:08:37;;;;;;;5.00;4.23;;;;;;;;;;5025796;28;20236;-76
2022/04/10 00:11:03;;;;;;;4.93;4.03;;;;;;;;;;5018247;28;20183;-76
2022/04/10 00:13:28;;;;;;;4.83;3.43;;;;;;;;;;5016922;28;20182;-76
2022/04/10 00:15:54;;;;;;;6.03;3.77;;;;;;;;;;5023593;28;20174;-76
2022/04/10 00:18:19;;;;;;;4.40;4.00;;;;;;;;;;5018190;28;20325;-76
2022/04/10 00:20:44;;;;;;;8.43;3.73;;;;;;;;;;5018469;28;20182;-76
2022/04/10 00:23:09;;;;;;;6.87;4.13;;;;;;;;;;5015708;28;20233;-76
2022/04/10 00:25:35;;;;;;;6.03;4.00;;;;;;;;;;5022035;28;20224;-76
2022/04/10 00:28:00;;;;;;;6.18;3.75;;;;;;;;;;5018859;28;20191;-76
2022/04/10 00:30:25;;;;;;;7.83;4.20;;;;;;;;;;5019247;28;20481;-76
2022/04/10 00:32:52;;;;;;;4.77;4.30;;;;;;;;;;5014867;28;20171;-76
2022/04/10 00:35:17;;;;;;;7.07;4.70;;;;;;;;;;5013585;28;20290;-76
2022/04/10 00:37:42;;;;;;;5.07;4.43;;;;;;;;;;5014589;28;20201;-76
2022/04/10 00:40:08;;;;;;;6.53;4.83;;;;;;;;;;5020954;28;20322;-76
2022/04/10 00:42:34;;;;;;;5.33;4.83;;;;;;;;;;5022455;28;20257;-76
2022/04/10 00:44:59;;;;;;;5.57;4.63;;;;;;;;;;5015724;28;20258;-76
2022/04/10 00:47:25;;;;;;;5.77;4.77;;;;;;;;;;5019318;28;20312;-77
2022/04/10 00:49:50;;;;;;;5.97;4.73;;;;;;;;;;5013108;28;20270;-76
2022/04/10 00:52:15;;;;;;;5.17;4.50;;;;;;;;;;5017629;28;20179;-76
2022/04/10 00:54:41;;;;;;;5.37;4.23;;;;;;;;;;5014981;28;20175;-76
2022/04/10 00:57:06;;;;;;;5.03;4.53;;;;;;;;;;5016485;28;20270;-76
2022/04/10 00:59:31;;;;;;;6.03;4.20;;;;;;;;;;5018636;28;20214;-76
2022/04/10 01:01:56;;;;;;;7.10;4.70;;;;;;;;;;5020547;28;20175;-76
2022/04/10 01:04:22;;;;;;;5.03;4.53;;;;;;;;;;5015235;28;20195;-76
2022/04/10 01:06:48;;;;;;;5.33;4.73;;;;;;;;;;5012853;28;20179;-76
2022/04/10 01:09:14;;;;;;;5.77;4.70;;;;;;;;;;5020473;28;20190;-76
2022/04/10 01:11:39;;;;;;;7.13;5.30;;;;;;;;;;5012592;28;20210;-76
2022/04/10 01:14:04;;;;;;;7.40;4.93;;;;;;;;;;5020589;28;20183;-76
2022/04/10 01:16:33;;;;;;;5.77;4.70;;;;;;;;;;5012247;28;20197;-76
2022/04/10 01:19:00;;;;;;;5.57;4.97;;;;;;;;;;5017074;28;20226;-76
2022/04/10 01:21:26;;;;;;;6.13;5.30;;;;;;;;;;5016615;28;20189;-76
2022/04/10 01:23:55;;;;;;;6.63;4.90;;;;;;;;;;5018043;28;20178;-76
2022/04/10 01:26:21;;;;;;;7.33;4.93;;;;;;;;;;5017094;28;20242;-76
2022/04/10 01:28:56;;;;;;;6.03;4.80;;;;;;;;;;5020368;28;20183;-76
2022/04/10 01:31:21;;;;;;;5.53;4.63;;;;;;;;;;5016122;28;20178;-76
2022/04/10 01:33:46;;;;;;;5.67;4.73;;;;;;;;;;5016698;28;20179;-76
2022/04/10 01:36:12;;;;;;;7.07;5.17;;;;;;;;;;5013527;28;20187;-76
2022/04/10 01:38:37;;;;;;;6.50;4.73;;;;;;;;;;5015072;28;20253;-76
2022/04/10 01:41:03;;;;;;;4.70;4.20;;;;;;;;;;5017899;28;20187;-76
2022/04/10 01:43:28;;;;;;;6.50;4.90;;;;;;;;;;5015256;28;20174;-76
2022/04/10 01:45:53;;;;;;;7.47;4.53;;;;;;;;;;5019541;28;20183;-76
2022/04/10 01:48:18;;;;;;;7.43;4.73;;;;;;;;;;5012954;28;20180;-76
2022/04/10 01:50:43;;;;;;;8.57;5.37;;;;;;;;;;5016270;28;20186;-76
2022/04/10 01:53:08;;;;;;;6.97;5.90;;;;;;;;;;5019603;28;20183;-76
2022/04/10 01:55:34;;;;;;;6.80;5.70;;;;;;;;;;5019492;28;20213;-76
2022/04/10 01:57:59;;;;;;;5.83;4.90;;;;;;;;;;5016345;28;20202;-76
2022/04/10 02:00:24;;;;;;;6.83;6.20;;;;;;;;;;5020053;28;20189;-76
2022/04/10 02:02:49;;;;;;;7.17;5.33;;;;;;;;;;5019330;28;20415;-76
2022/04/10 02:05:14;;;;;;;8.67;5.77;;;;;;;;;;5009037;28;20610;-76
2022/04/10 02:07:40;;;;;;;8.77;5.27;;;;;;;;;;5014396;28;20262;-76
2022/04/10 02:10:05;;;;;;;8.03;6.00;;;;;;;;;;5011653;28;20248;-76
2022/04/10 02:12:31;;;;;;;6.33;5.23;;;;;;;;;;5021095;28;20207;-76
2022/04/10 02:14:56;;;;;;;9.10;5.30;;;;;;;;;;5021742;28;20182;-76
2022/04/10 02:17:21;;;;;;;9.77;5.90;;;;;;;;;;5019825;28;20222;-76
2022/04/10 02:19:46;;;;;;;8.97;6.40;;;;;;;;;;5014181;28;20230;-76
2022/04/10 02:22:12;;;;;;;6.97;6.17;;;;;;;;;;5014585;28;20468;-76
2022/04/10 02:24:37;;;;;;;7.87;7.07;;;;;;;;;;5018099;28;20173;-76
2022/04/10 02:27:02;;;;;;;8.77;6.73;;;;;;;;;;5013619;28;20193;-76
2022/04/10 02:29:27;;;;;;;5.90;5.30;;;;;;;;;;5018868;28;20225;-77
2022/04/10 02:31:52;;;;;;;7.60;5.95;;;;;;;;;;5013832;28;20278;-76
2022/04/10 02:34:18;;;;;;;8.40;6.50;;;;;;;;;;5015249;28;20187;-76
2022/04/10 02:36:43;;;;;;;9.43;6.00;;;;;;;;;;5029157;28;20205;-76
2022/04/10 02:39:08;;;;;;;6.63;5.97;;;;;;;;;;5013651;28;20206;-76
2022/04/10 02:41:33;;;;;;;10.63;6.50;;;;;;;;;;5011034;28;20175;-76
2022/04/10 02:43:58;;;;;;;8.43;7.17;;;;;;;;;;5017543;28;20203;-76
2022/04/10 02:46:24;;;;;;;7.60;5.50;;;;;;;;;;5021774;28;20178;-76
2022/04/10 02:48:49;;;;;;;8.67;6.23;;;;;;;;;;5016746;28;20171;-76
2022/04/10 02:51:14;;;;;;;7.60;6.80;;;;;;;;;;5015687;28;20187;-76
2022/04/10 02:53:39;;;;;;;7.07;6.03;;;;;;;;;;5020417;28;20172;-76
2022/04/10 02:56:04;;;;;;;10.07;6.30;;;;;;;;;;5008495;28;20214;-76
2022/04/10 02:58:30;;;;;;;7.83;6.37;;;;;;;;;;5017471;28;20277;-76
2022/04/10 03:00:55;;;;;;;8.20;6.40;;;;;;;;;;5012803;28;20183;-76
2022/04/10 03:03:20;;;;;;;7.53;5.87;;;;;;;;;;5017021;28;20180;-76
2022/04/10 03:05:45;;;;;;;8.37;6.37;;;;;;;;;;5020171;28;20210;-76
2022/04/10 03:08:11;;;;;;;11.87;6.77;;;;;;;;;;5021842;28;20194;-76
2022/04/10 03:10:36;;;;;;;8.83;6.30;;;;;;;;;;5018699;28;20241;-76
2022/04/10 03:13:01;;;;;;;8.17;7.30;;;;;;;;;;5019005;28;20191;-76
2022/04/10 03:15:27;;;;;;;9.03;7.53;;;;;;;;;;5017386;28;20183;-76
2022/04/10 03:17:52;;;;;;;12.07;7.10;;;;;;;;;;5016336;28;20302;-76
2022/04/10 03:20:17;;;;;;;7.63;6.73;;;;;;;;;;5021056;28;20183;-77
2022/04/10 03:22:42;;;;;;;7.40;6.37;;;;;;;;;;5019628;28;20175;-76
2022/04/10 03:25:08;;;;;;;8.93;7.33;;;;;;;;;;5022849;28;20199;-75
2022/04/10 03:27:33;;;;;;;10.97;8.70;;;;;;;;;;5019995;28;20187;-76
2022/04/10 03:30:01;;;;;;;11.80;8.20;;;;;;;;;;5018330;28;20261;-75
2022/04/10 03:32:26;;;;;;;10.63;9.07;;;;;;;;;;5023802;28;20270;-76
2022/04/10 03:34:51;;;;;;;10.70;7.63;;;;;;;;;;5017957;28;20302;-76
2022/04/10 03:37:16;;;;;;;9.43;6.87;;;;;;;;;;5024992;28;20175;-75
2022/04/10 03:39:42;;;;;;;8.20;7.40;;;;;;;;;;5026461;28;20230;-75
2022/04/10 03:42:07;;;;;;;8.87;6.70;;;;;;;;;;5015485;28;20313;-75
2022/04/10 03:44:32;;;;;;;8.17;6.73;;;;;;;;;;5016106;28;20202;-75
2022/04/10 03:46:57;;;;;;;9.10;7.87;;;;;;;;;;5014488;28;20167;-76
2022/04/10 03:49:23;;;;;;;10.90;7.63;;;;;;;;;;5024961;28;20265;-75
2022/04/10 03:51:48;;;;;;;10.30;7.73;;;;;;;;;;5021234;28;20421;-76
2022/04/10 03:54:13;;;;;;;10.27;7.90;;;;;;;;;;5022224;28;20233;-75
2022/04/10 03:56:41;;;;;;;8.00;6.83;;;;;;;;;;5015649;28;20191;-75
2022/04/10 03:59:06;;;;;;;9.70;7.40;;;;;;;;;;5013826;28;20215;-75
2022/04/10 04:01:31;;;;;;;9.40;7.70;;;;;;;;;;5018791;28;20577;-75
2022/04/10 04:03:56;;;;;;;9.97;6.67;;;;;;;;;;5021803;28;20194;-75
2022/04/10 04:06:21;;;;;;;9.10;7.33;;;;;;;;;;5016338;28;20176;-75
2022/04/10 04:08:47;;;;;;;7.10;6.40;;;;;;;;;;5014384;28;20170;-75
2022/04/10 04:11:12;;;;;;;8.07;7.10;;;;;;;;;;5016037;28;20214;-76
2022/04/10 04:13:38;;;;;;;10.10;7.10;;;;;;;;;;5021589;28;20186;-75
2022/04/10 04:16:03;;;;;;;8.13;6.57;;;;;;;;;;5022606;28;20187;-75
2022/04/10 04:18:29;;;;;;;7.30;6.53;;;;;;;;;;5016823;28;20215;-75
2022/04/10 04:20:54;;;;;;;7.80;6.97;;;;;;;;;;5020489;28;20171;-75
2022/04/10 04:23:19;;;;;;;9.90;7.73;;;;;;;;;;5020938;28;20178;-75
2022/04/10 04:25:45;;;;;;;6.90;6.20;;;;;;;;;;5019684;28;20179;-75
2022/04/10 04:28:10;;;;;;;9.37;6.67;;;;;;;;;;5020061;28;20275;-75
2022/04/10 04:30:35;;;;;;;7.87;6.67;;;;;;;;;;5023104;28;20186;-75
2022/04/10 04:33:01;;;;;;;8.80;7.60;;;;;;;;;;5016863;28;20215;-75
2022/04/10 04:35:26;;;;;;;7.33;6.43;;;;;;;;;;5022571;28;20171;-75
2022/04/10 04:37:51;;;;;;;9.10;7.10;;;;;;;;;;5022137;28;20270;-76
2022/04/10 04:40:16;;;;;;;9.27;6.90;;;;;;;;;;5026922;28;20205;-75
2022/04/10 04:42:42;;;;;;;7.83;6.80;;;;;;;;;;5018518;28;20222;-75
2022/04/10 04:45:08;;;;;;;7.93;6.80;;;;;;;;;;5024604;28;20186;-75
2022/04/10 04:47:33;;;;;;;6.40;5.77;;;;;;;;;;5022055;28;20193;-75
2022/04/10 04:49:59;;;;;;;9.47;7.20;;;;;;;;;;5017390;28;20236;-75
2022/04/10 04:52:24;;;;;;;10.57;7.30;;;;;;;;;;5021895;28;20244;-73
2022/04/10 04:54:49;;;;;;;10.40;6.90;;;;;;;;;;5025469;28;20183;-73
2022/04/10 04:57:15;;;;;;;8.67;7.63;;;;;;;;;;5020430;28;20270;-73
2022/04/10 04:59:40;;;;;;;12.80;8.33;;;;;;;;;;5015804;28;20207;-72
2022/04/10 05:02:06;;;;;;;9.90;6.90;;;;;;;;;;5022784;28;20176;-73
2022/04/10 05:04:31;;;;;;;10.80;6.87;;;;;;;;;;5022749;28;20191;-75
2022/04/10 05:06:56;;;;;;;8.57;7.37;;;;;;;;;;5023427;28;20182;-75
2022/04/10 05:09:22;;;;;;;7.50;6.77;;;;;;;;;;5025541;28;20171;-75
2022/04/10 05:11:47;;;;;;;11.30;8.33;;;;;;;;;;5022816;28;20184;-75
2022/04/10 05:14:12;;;;;;;26.67;18.97;;;;;;;;;;5017344;28;20191;-75
2022/04/10 05:16:37;;;;;;;9.27;8.37;;;;;;;;;;5016622;28;20262;-75
2022/04/10 05:19:05;;;;;;;11.13;8.20;;;;;;;;;;5019354;28;20425;-75
2022/04/10 05:21:30;;;;;;;10.77;8.33;;;;;;;;;;5022176;28;20202;-75
2022/04/10 05:23:56;;;;;;;9.00;7.57;;;;;;;;;;5018054;28;20207;-75
2022/04/10 05:26:21;;;;;;;9.07;6.77;;;;;;;;;;5013364;28;20180;-75
2022/04/10 05:28:46;;;;;;;10.83;8.57;;;;;;;;;;5021156;28;20186;-75
2022/04/10 05:31:11;;;;;;;17.33;13.93;;;;;;;;;;5014244;28;20190;-75
2022/04/10 05:33:37;;;;;;;8.23;7.40;;;;;;;;;;5012157;28;20209;-75
2022/04/10 05:36:02;;;;;;;9.23;7.00;;;;;;;;;;5017643;28;20225;-75
2022/04/10 05:38:28;;;;;;;8.73;7.93;;;;;;;;;;5020083;28;20260;-75
2022/04/10 05:40:53;;;;;;;8.00;7.10;;;;;;;;;;5014207;28;20175;-75
2022/04/10 05:43:19;;;;;;;9.03;6.50;;;;;;;;;;5020596;28;20171;-75
2022/04/10 05:45:45;;;;;;;9.43;6.53;;;;;;;;;;5020387;28;20181;-73
2022/04/10 05:48:10;;;;;;;7.90;6.90;;;;;;;;;;5015090;28;20187;-73
2022/04/10 05:50:35;;;;;;;7.53;6.57;;;;;;;;;;5023766;28;20606;-73
2022/04/10 05:53:01;;;;;;;10.53;7.60;;;;;;;;;;5022587;28;20187;-76
2022/04/10 05:55:28;;;;;;;9.23;6.53;;;;;;;;;;5018120;28;20201;-76
2022/04/10 05:57:54;;;;;;;8.80;7.27;;;;;;;;;;5021765;28;20186;-76
2022/04/10 06:00:21;;;;;;;8.77;7.73;;;;;;;;;;5020679;28;20179;-76
2022/04/10 06:02:46;;;;;;;9.33;7.77;;;;;;;;;;5016279;28;20175;-76
2022/04/10 06:05:11;;;;;;;8.53;7.00;;;;;;;;;;5017484;28;20206;-74
2022/04/10 06:07:36;;;;;;;10.57;7.00;;;;;;;;;;5015877;28;20179;-72
2022/04/10 06:10:02;;;;;;;7.97;7.17;;;;;;;;;;5024599;28;20188;-73
2022/04/10 06:12:28;;;;;;;9.10;8.23;;;;;;;;;;5014554;28;20183;-72
2022/04/10 06:14:54;;;;;;;9.70;8.70;;;;;;;;;;5019870;28;20178;-72
2022/04/10 06:17:19;;;;;;;11.03;8.57;;;;;;;;;;5018342;28;20179;-72
2022/04/10 06:19:45;;;;;;;11.43;8.70;;;;;;;;;;5024001;28;20274;-73
2022/04/10 06:22:10;;;;;;;15.40;9.93;;;;;;;;;;5015954;28;20175;-73
2022/04/10 06:24:36;;;;;;;15.77;9.07;;;;;;;;;;5025258;28;20174;-72
2022/04/10 06:27:01;;;;;;;9.00;7.87;;;;;;;;;;5016542;28;20171;-72
2022/04/10 06:29:27;;;;;;;9.87;7.50;;;;;;;;;;5016148;28;20266;-73
2022/04/10 06:31:52;;;;;;;8.53;7.63;;;;;;;;;;5027767;28;20182;-73
2022/04/10 06:34:17;;;;;;;8.37;7.57;;;;;;;;;;5019003;28;20373;-73
2022/04/10 06:36:42;;;;;;;9.37;8.47;;;;;;;;;;5027677;28;20222;-73
2022/04/10 06:39:09;;;;;;;9.77;8.17;;;;;;;;;;5020971;28;20199;-73
2022/04/10 06:41:34;;;;;;;8.87;7.57;;;;;;;;;;5016009;28;20194;-73
2022/04/10 06:44:00;;;;;;;10.63;8.13;;;;;;;;;;5015896;28;20187;-72
2022/04/10 06:46:26;;;;;;;12.20;8.53;;;;;;;;;;5025585;28;20178;-72
2022/04/10 06:48:52;;;;;;;10.60;7.73;;;;;;;;;;5019335;28;20624;-73
2022/04/10 06:51:17;;;;;;;9.97;8.40;;;;;;;;;;5025921;28;20224;-73
2022/04/10 06:53:42;;;;;;;9.87;7.77;;;;;;;;;;5022187;28;20270;-73
2022/04/10 06:56:07;;;;;;;8.87;7.50;;;;;;;;;;5026646;28;20184;-75
2022/04/10 06:58:33;;;;;;;14.13;10.67;;;;;;;;;;5029708;28;20278;-75
2022/04/10 07:00:59;;;;;;;15.47;11.90;;;;;;;;;;5017028;28;20285;-75
2022/04/10 07:03:24;;;;;;;10.13;8.83;;;;;;;;;;5017165;28;20186;-75
2022/04/10 07:05:49;;;;;;;11.27;7.50;;;;;;;;;;5023185;28;20175;-74
2022/04/10 07:08:15;;;;;;;10.47;7.73;;;;;;;;;;5021824;28;20262;-75
2022/04/10 07:10:40;;;;;;;8.83;7.30;;;;;;;;;;5018401;28;20298;-74
2022/04/10 07:13:05;;;;;;;8.57;7.53;;;;;;;;;;5025094;28;20176;-75
2022/04/10 07:15:31;;;;;;;10.33;7.40;;;;;;;;;;5020034;28;20217;-74
2022/04/10 07:17:56;;;;;;;10.63;8.87;;;;;;;;;;5025493;28;20226;-75
2022/04/10 07:20:22;;;;;;;15.17;12.43;;;;;;;;;;5021005;28;20212;-75
2022/04/10 07:25:33;;;;;;;10.67;9.57;;;;;;;;;;5026811;28;20217;-75
2022/04/10 07:27:58;;;;;;;8.53;7.70;;;;;;;;;;5014553;28;20270;-75
2022/04/10 07:30:23;;;;;;;9.53;8.63;;;;;;;;;;5025689;28;20362;-74
2022/04/10 07:32:52;;;;;;;8.20;7.40;;;;;;;;;;5022039;28;20171;-75
2022/04/10 07:35:17;;;;;;;7.57;6.77;;;;;;;;;;5025185;28;20198;-75
2022/04/10 07:37:42;;;;;;;7.87;6.97;;;;;;;;;;5023968;28;20183;-74
2022/04/10 07:40:08;;;;;;;10.43;8.40;;;;;;;;;;5022297;28;20203;-74
2022/04/10 07:42:37;;;;;;;9.43;8.57;;;;;;;;;;5027595;28;20178;-74
2022/04/10 07:45:02;;;;;;;6.53;5.87;;;;;;;;;;5022914;28;20175;-74
2022/04/10 07:47:31;;;;;;;10.77;6.97;;;;;;;;;;5019680;28;20177;-75
2022/04/10 07:49:56;;;;;;;9.03;7.70;;;;;;;;;;5019985;28;20175;-74
2022/04/10 07:52:22;;;;;;;7.50;6.60;;;;;;;;;;5019711;28;20266;-74
2022/04/10 07:54:48;;;;;;;8.27;6.30;;;;;;;;;;5022983;28;20295;-74
2022/04/10 07:57:13;;;;;;;7.93;7.07;;;;;;;;;;5022839;28;20190;-74
2022/04/10 07:59:38;;;;;;;9.43;6.10;;;;;;;;;;5014506;28;20197;-74
2022/04/10 08:02:03;;;;;;;15.60;10.50;;;;;;;;;;5015254;28;20183;-74
2022/04/10 08:04:29;;;;;;;13.80;8.77;;;;;;;;;;5022522;28;20198;-74
2022/04/10 08:06:54;;;;;;;7.13;5.23;;;;;;;;;;5018637;28;20179;-74
2022/04/10 08:09:20;;;;;;;6.53;4.47;;;;;;;;;;5017891;28;20198;-74
2022/04/10 08:11:45;;;;;;;7.33;6.63;;;;;;;;;;5016798;28;20211;-74
2022/04/10 08:14:10;;;;;;;9.77;7.10;;;;;;;;;;5027550;28;20181;-74
2022/04/10 08:16:35;;;;;;;7.10;6.30;;;;;;;;;;5024615;28;20204;-74
2022/04/10 08:19:00;;;;;;;11.30;6.73;;;;;;;;;;5023859;28;20227;-74
2022/04/10 08:21:26;;;;;;;7.37;6.47;;;;;;;;;;5016866;28;20186;-74
2022/04/10 08:23:51;;;;;;;8.50;7.63;;;;;;;;;;5019414;28;20191;-74
2022/04/10 08:26:16;;;;;;;5.07;4.57;;;;;;;;;;5023257;28;20174;-74
2022/04/10 08:28:41;;;;;;;4.73;4.27;;;;;;;;;;5020571;28;20179;-74
2022/04/10 08:31:07;;;;;;;5.27;4.77;;;;;;;;;;5025785;28;20190;-74
2022/04/10 08:33:32;;;;;;;6.23;5.63;;;;;;;;;;5020463;28;20265;-74
2022/04/10 08:35:57;;;;;;;10.30;6.05;;;;;;;;;;5026976;28;20175;-74
2022/04/10 08:38:23;;;;;;;7.87;5.07;;;;;;;;;;5025612;28;20286;-74
2022/04/10 08:40:48;;;;;;;6.30;4.43;;;;;;;;;;5016639;28;20176;-74
2022/04/10 08:43:14;;;;;;;5.97;5.27;;;;;;;;;;5021678;28;20213;-74
2022/04/10 08:45:39;;;;;;;6.87;4.90;;;;;;;;;;5018093;28;20175;-74
2022/04/10 08:48:05;;;;;;;7.73;4.87;;;;;;;;;;5019721;28;20198;-74
2022/04/10 08:50:30;;;;;;;6.93;4.87;;;;;;;;;;5016919;28;20175;-74
2022/04/10 08:52:56;;;;;;;4.37;3.97;;;;;;;;;;5023518;28;20175;-74
2022/04/10 08:55:21;;;;;;;6.47;4.43;;;;;;;;;;5018322;28;20186;-74
2022/04/10 08:57:47;;;;;;;5.93;4.50;;;;;;;;;;5020780;28;20174;-74
2022/04/10 09:00:12;;;;;;;6.00;4.17;;;;;;;;;;5015703;28;20238;-74
2022/04/10 09:02:48;;;;;;;5.20;4.40;;;;;;;;;;5023366;28;20262;-74
2022/04/10 09:05:17;;;;;;;8.57;4.63;;;;;;;;;;5014792;28;20261;-74
2022/04/10 09:08:02;;;;;;;5.07;4.33;;;;;;;;;;5020839;28;20214;-74
2022/04/10 09:10:27;;;;;;;4.90;4.40;;;;;;;;;;5018572;28;20170;-74
2022/04/10 09:12:53;;;;;;;5.30;4.80;;;;;;;;;;5018839;28;20186;-73
2022/04/10 09:15:18;;;;;;;7.53;5.13;;;;;;;;;;5027643;28;20290;-74
2022/04/10 09:17:53;;;;;;;12.40;5.83;;;;;;;;;;5025017;28;20234;-74
2022/04/10 09:20:18;;;;;;;8.03;6.23;;;;;;;;;;5018820;28;20207;-74
2022/04/10 09:22:43;;;;;;;7.63;6.03;;;;;;;;;;5015651;28;20186;-74
2022/04/10 09:25:13;;;;;;;6.00;5.40;;;;;;;;;;5019493;28;20320;-72
2022/04/10 09:27:40;;;;;;;7.67;6.60;;;;;;;;;;5019112;28;20183;-71
2022/04/10 09:30:06;;;;;;;6.17;5.57;;;;;;;;;;5024027;28;20186;-72
2022/04/10 09:32:42;;;;;;;5.07;4.63;;;;;;;;;;5019123;28;20171;-72
2022/04/10 09:35:09;;;;;;;6.03;5.40;;;;;;;;;;5022565;28;20184;-71
2022/04/10 09:37:44;;;;;;;10.93;7.53;;;;;;;;;;5023445;28;20216;-72
2022/04/10 09:40:26;;;;;;;8.30;5.90;;;;;;;;;;5019091;28;20207;-72
2022/04/10 09:42:58;;;;;;;8.63;7.47;;;;;;;;;;5020339;28;20186;-72
2022/04/10 09:45:27;;;;;;;9.30;5.73;;;;;;;;;;5021921;28;20177;-71
2022/04/10 09:47:52;;;;;;;7.67;5.27;;;;;;;;;;5020970;28;20202;-72
2022/04/10 09:50:17;;;;;;;7.10;5.37;;;;;;;;;;5018454;28;20222;-72
2022/04/10 09:52:42;;;;;;;5.90;5.30;;;;;;;;;;5023271;28;20537;-72
2022/04/10 09:55:27;;;;;;;7.23;5.63;;;;;;;;;;5019149;28;20184;-72
2022/04/10 09:57:59;;;;;;;6.60;5.43;;;;;;;;;;5021865;28;20187;-72
2022/04/10 10:00:24;;;;;;;6.07;5.13;;;;;;;;;;5020176;28;20196;-72
2022/04/10 10:02:50;;;;;;;8.17;5.87;;;;;;;;;;5023138;28;20174;-72
2022/04/10 10:05:15;;;;;;;7.10;5.70;;;;;;;;;;5013129;28;20200;-72
2022/04/10 10:07:41;;;;;;;6.30;5.70;;;;;;;;;;5024191;28;20186;-72
2022/04/10 10:10:07;;;;;;;19.47;13.10;;;;;;;;;;5022614;28;20266;-72
2022/04/10 10:12:33;;;;;;;10.10;5.70;;;;;;;;;;5020622;28;20343;-72
2022/04/10 10:14:58;;;;;;;8.23;5.43;;;;;;;;;;5012823;28;20198;-72
2022/04/10 10:17:25;;;;;;;7.23;5.93;;;;;;;;;;5019370;28;20191;-72
2022/04/10 10:19:52;;;;;;;8.17;6.73;;;;;;;;;;5016323;28;20240;-74
2022/04/10 10:22:17;;;;;;;6.93;6.23;;;;;;;;;;5031104;28;20211;-74
2022/04/10 10:24:50;;;;;;;6.33;5.40;;;;;;;;;;5022149;28;20268;-74
2022/04/10 10:27:40;;;;;;;6.30;5.70;;;;;;;;;;5015914;28;20197;-74
2022/04/10 10:30:08;;;;;;;7.10;5.73;;;;;;;;;;5016201;28;20183;-74
2022/04/10 10:32:41;;;;;;;7.10;6.00;;;;;;;;;;5023558;28;20176;-74
2022/04/10 10:35:09;;;;;;;5.87;5.00;;;;;;;;;;5020844;28;20185;-74
2022/04/10 10:37:46;;;;;;;6.73;5.30;;;;;;;;;;5022387;28;20187;-74
2022/04/10 10:40:18;;;;;;;5.03;4.47;;;;;;;;;;5025695;28;20216;-74
2022/04/10 10:42:45;;;;;;;5.53;4.87;;;;;;;;;;5022019;28;20177;-74
2022/04/10 10:45:10;;;;;;;6.00;5.40;;;;;;;;;;5025689;28;20174;-74
2022/04/10 10:47:35;;;;;;;5.03;3.67;;;;;;;;;;5015861;28;20182;-74
2022/04/10 10:50:22;;;;;;;7.03;3.53;;;;;;;;;;5023619;28;20249;-71
2022/04/10 10:53:04;;;;;;;5.40;3.73;;;;;;;;;;5023908;28;20183;-72
2022/04/10 10:55:42;;;;;;;6.40;5.80;;;;;;;;;;5020803;28;20178;-72
2022/04/10 10:58:07;;;;;;;4.10;3.67;;;;;;;;;;5022928;28;20186;-72
2022/04/10 11:00:35;;;;;;;5.73;5.00;;;;;;;;;;5020401;28;20200;-72
2022/04/10 11:03:07;;;;;;;7.03;5.40;;;;;;;;;;5021210;28;20261;-72
2022/04/10 11:05:34;;;;;;;5.27;4.70;;;;;;;;;;5016992;28;20202;-72
2022/04/10 11:08:04;;;;;;;4.67;4.07;;;;;;;;;;5018282;28;20180;-72
2022/04/10 11:10:30;;;;;;;5.17;3.70;;;;;;;;;;5020066;28;20185;-72
2022/04/10 11:13:02;;;;;;;6.77;3.70;;;;;;;;;;5019710;28;20194;-72
2022/04/10 11:15:32;;;;;;;4.00;3.60;;;;;;;;;;5022790;28;20199;-72
2022/04/10 11:18:02;;;;;;;4.30;3.90;;;;;;;;;;5022062;28;20222;-72
2022/04/10 11:20:27;;;;;;;3.50;3.20;;;;;;;;;;5021667;28;20199;-72
2022/04/10 11:22:53;;;;;;;3.67;3.30;;;;;;;;;;5029097;28;20178;-72
2022/04/10 11:25:28;;;;;;;3.85;3.40;;;;;;;;;;5013453;28;20177;-72
2022/04/10 11:27:54;;;;;;;5.27;4.20;;;;;;;;;;5022198;28;20182;-72
2022/04/10 11:30:24;;;;;;;5.30;4.10;;;;;;;;;;5021385;28;20188;-72
2022/04/10 11:32:50;;;;;;;4.10;3.70;;;;;;;;;;5017811;28;20191;-72
2022/04/10 11:35:26;;;;;;;4.10;3.30;;;;;;;;;;5024273;28;20195;-72
2022/04/10 11:37:52;;;;;;;4.30;3.90;;;;;;;;;;5018647;28;20179;-72
2022/04/10 11:40:22;;;;;;;4.07;3.67;;;;;;;;;;5018359;28;20210;-72
2022/04/10 11:42:47;;;;;;;3.50;3.20;;;;;;;;;;5028799;28;21260;-72
2022/04/10 11:45:13;;;;;;;3.00;2.70;;;;;;;;;;5022273;28;20230;-72
2022/04/10 11:47:42;;;;;;;4.37;3.70;;;;;;;;;;5025462;28;20171;-72
2022/04/10 11:50:08;;;;;;;4.23;3.10;;;;;;;;;;5025939;28;20199;-73
2022/04/10 11:52:33;;;;;;;3.47;2.80;;;;;;;;;;5027721;28;20246;-72
2022/04/10 11:54:59;;;;;;;5.20;2.57;;;;;;;;;;5026053;28;20193;-72
2022/04/10 11:57:24;;;;;;;3.37;3.07;;;;;;;;;;5016451;28;20214;-72
2022/04/10 11:59:50;;;;;;;3.00;2.70;;;;;;;;;;5022239;28;20196;-72
2022/04/10 12:02:17;;;;;;;4.03;3.17;;;;;;;;;;5020851;28;20642;-72
2022/04/10 12:04:42;;;;;;;3.57;3.00;;;;;;;;;;5023715;28;20194;-72
2022/04/10 12:07:12;;;;;;;8.83;3.00;;;;;;;;;;5024063;28;20177;-71
2022/04/10 12:09:37;;;;;;;3.27;2.87;;;;;;;;;;5015998;28;20177;-72
2022/04/10 12:12:03;;;;;;;3.87;3.13;;;;;;;;;;5022224;28;20183;-72
2022/04/10 12:14:28;;;;;;;3.73;3.30;;;;;;;;;;5023009;28;20192;-72
2022/04/10 12:16:54;;;;;;;4.00;3.23;;;;;;;;;;5018858;28;20173;-72
2022/04/10 12:19:30;;;;;;;3.60;2.77;;;;;;;;;;5018989;28;20316;-72
2022/04/10 12:21:55;;;;;;;2.87;2.27;;;;;;;;;;5023945;28;20174;-72
2022/04/10 12:24:20;;;;;;;3.50;3.20;;;;;;;;;;5021843;28;20182;-72
2022/04/10 12:26:46;;;;;;;6.53;3.70;;;;;;;;;;5015934;28;20281;-72
2022/04/10 12:29:11;;;;;;;3.47;3.17;;;;;;;;;;5021652;28;20244;-72
2022/04/10 12:31:37;;;;;;;6.33;3.17;;;;;;;;;;5023382;28;20183;-72
2022/04/10 12:34:03;;;;;;;6.43;3.27;;;;;;;;;;5021636;28;20217;-72
2022/04/10 12:36:28;;;;;;;2.97;2.63;;;;;;;;;;5021266;28;20188;-72
2022/04/10 12:38:54;;;;;;;2.90;2.70;;;;;;;;;;5018062;28;20205;-72
2022/04/10 12:41:29;;;;;;;3.50;2.70;;;;;;;;;;5014073;28;20180;-72
2022/04/10 12:43:58;;;;;;;3.33;2.67;;;;;;;;;;5014098;28;20179;-72
2022/04/10 12:46:31;;;;;;;5.07;2.87;;;;;;;;;;5015318;28;20216;-73
2022/04/10 12:49:08;;;;;;;3.60;2.10;;;;;;;;;;5007813;28;20190;-72
2022/04/10 12:51:33;;;;;;;3.07;2.77;;;;;;;;;;5018197;28;20277;-72
2022/04/10 12:53:58;;;;;;;3.57;3.10;;;;;;;;;;5035746;28;20269;-72
2022/04/10 12:56:24;;;;;;;3.00;2.60;;;;;;;;;;5023493;28;21584;-72
2022/04/10 12:58:50;;;;;;;4.53;3.43;;;;;;;;;;5014760;28;20215;-72
2022/04/10 13:01:28;;;;;;;5.17;4.10;;;;;;;;;;5014651;28;20180;-72
2022/04/10 13:03:53;;;;;;;4.00;3.60;;;;;;;;;;5022295;28;20236;-72
2022/04/10 13:06:19;;;;;;;4.67;3.30;;;;;;;;;;5017025;28;20187;-72
2022/04/10 13:08:45;;;;;;;4.13;3.73;;;;;;;;;;5021369;28;20188;-72
2022/04/10 13:11:12;;;;;;;4.57;3.50;;;;;;;;;;5014035;28;20191;-72
2022/04/10 13:13:55;;;;;;;4.00;3.63;;;;;;;;;;5019086;28;20329;-72
2022/04/10 13:16:27;;;;;;;4.43;3.60;;;;;;;;;;5017375;28;20178;-72
2022/04/10 13:18:52;;;;;;;3.40;3.10;;;;;;;;;;5028326;28;20693;-72
2022/04/10 13:21:17;;;;;;;3.67;2.90;;;;;;;;;;5015265;28;20174;-72
2022/04/10 13:23:42;;;;;;;3.27;2.60;;;;;;;;;;5010566;28;20188;-72
2022/04/10 13:26:08;;;;;;;7.13;2.77;;;;;;;;;;5020521;28;20210;-72
2022/04/10 13:28:33;;;;;;;5.10;2.80;;;;;;;;;;5014209;28;20270;-72
2022/04/10 13:30:58;;;;;;;2.60;2.17;;;;;;;;;;5014269;28;20187;-73
2022/04/10 13:33:23;;;;;;;4.60;2.97;;;;;;;;;;5024887;28;20265;-73
2022/04/10 13:35:48;;;;;;;5.07;3.30;;;;;;;;;;5018033;28;20193;-72
2022/04/10 13:38:13;;;;;;;3.40;3.07;;;;;;;;;;5017741;28;20208;-72
2022/04/10 13:40:39;;;;;;;3.30;2.70;;;;;;;;;;5015443;28;20179;-72
2022/04/10 13:43:04;;;;;;;2.80;2.60;;;;;;;;;;5018179;28;20190;-72
2022/04/10 13:45:29;;;;;;;3.20;2.73;;;;;;;;;;5023350;28;20307;-72
2022/04/10 13:47:54;;;;;;;3.90;2.80;;;;;;;;;;5031583;28;20173;-72
2022/04/10 13:50:19;;;;;;;3.87;2.60;;;;;;;;;;5015344;28;20182;-72
2022/04/10 13:52:45;;;;;;;3.72;2.78;;;;;;;;;;5020167;28;20201;-72
2022/04/10 13:55:10;;;;;;;6.00;2.93;;;;;;;;;;5014050;28;20202;-72
2022/04/10 13:57:35;;;;;;;4.20;2.10;;;;;;;;;;5023614;28;20186;-72
2022/04/10 14:00:00;;;;;;;2.83;2.60;;;;;;;;;;5015635;28;20242;-72
2022/04/10 14:02:26;;;;;;;3.60;2.50;;;;;;;;;;5018579;28;20235;-72
2022/04/10 14:04:51;;;;;;;3.90;2.87;;;;;;;;;;5014504;28;20196;-72
2022/04/10 14:07:16;;;;;;;3.67;2.40;;;;;;;;;;5037156;28;20243;-72
2022/04/10 14:09:41;;;;;;;3.47;2.63;;;;;;;;;;5018672;28;20184;-73
2022/04/10 14:12:07;;;;;;;2.47;2.23;;;;;;;;;;5015711;28;20254;-72
2022/04/10 14:14:33;;;;;;;2.17;1.97;;;;;;;;;;5018691;28;20194;-72
2022/04/10 14:16:59;;;;;;;3.97;2.17;;;;;;;;;;5020196;28;20178;-72
2022/04/10 14:19:25;;;;;;;3.03;2.20;;;;;;;;;;5013525;28;20307;-72
2022/04/10 14:21:50;;;;;;;2.53;2.33;;;;;;;;;;5017036;28;20210;-72
2022/04/10 14:24:15;;;;;;;4.13;2.30;;;;;;;;;;5016642;28;20245;-72
2022/04/10 14:26:40;;;;;;;4.27;2.63;;;;;;;;;;5022389;28;20244;-72
2022/04/10 14:29:06;;;;;;;3.80;3.00;;;;;;;;;;5028021;28;20190;-72
2022/04/10 14:31:31;;;;;;;3.00;2.70;;;;;;;;;;5024025;28;20178;-72
2022/04/10 14:33:56;;;;;;;3.43;2.97;;;;;;;;;;5011947;28;20176;-72
2022/04/10 14:36:21;;;;;;;3.67;2.60;;;;;;;;;;5018927;28;20188;-72
2022/04/10 14:38:46;;;;;;;3.53;3.22;;;;;;;;;;5015266;28;20378;-72